createdAt,value
2022-11-20T00:01:53.149Z,70.78
2022-11-20T00:04:21.892Z,70.70
2022-11-20T00:06:50.664Z,70.52
2022-11-20T00:09:19.590Z,70.85
2022-11-20T00:11:48.514Z,70.74
2022-11-20T00:14:17.755Z,71.02
2022-11-20T00:16:47.023Z,71.30
2022-11-20T00:19:16.570Z,70.93
2022-11-20T00:21:48.095Z,70.57
2022-11-20T00:24:17.027Z,71.16
2022-11-20T00:26:53.214Z,70.93
2022-11-20T00:29:23.369Z,71.00
2022-11-20T00:31:52.305Z,71.09
2022-11-20T00:34:20.960Z,71.12
2022-11-20T00:36:49.588Z,70.93
2022-11-20T00:39:18.808Z,71.20
2022-11-20T00:41:48.192Z,71.31
2022-11-20T00:44:16.836Z,71.32
2022-11-20T00:46:46.028Z,71.24
2022-11-20T00:49:14.640Z,71.29
2022-11-20T00:51:43.712Z,71.33
2022-11-20T00:54:12.427Z,70.96
2022-11-20T00:56:41.012Z,71.31
2022-11-20T00:59:11.694Z,71.31
2022-11-20T01:01:40.441Z,71.51
2022-11-20T01:04:09.240Z,71.33
2022-11-20T01:06:39.455Z,71.21
2022-11-20T01:09:12.326Z,71.35
2022-11-20T01:11:43.085Z,70.99
2022-11-20T01:14:14.519Z,71.20
2022-11-20T01:16:46.643Z,71.36
2022-11-20T01:19:18.077Z,71.36
2022-11-20T01:21:49.393Z,71.59
2022-11-20T01:24:20.517Z,71.08
2022-11-20T01:26:50.479Z,71.29
2022-11-20T01:29:21.430Z,71.13
2022-11-20T01:31:51.923Z,71.06
2022-11-20T01:34:22.640Z,71.22
2022-11-20T01:36:53.192Z,71.42
2022-11-20T01:39:24.719Z,71.35
2022-11-20T01:42:13.178Z,70.99
2022-11-20T01:44:57.090Z,71.17
2022-11-20T01:47:33.272Z,71.10
2022-11-20T01:50:07.832Z,71.26
2022-11-20T01:52:41.937Z,71.35
2022-11-20T01:55:15.832Z,71.19
2022-11-20T01:57:46.466Z,71.46
2022-11-20T02:00:18.931Z,71.14
2022-11-20T02:02:57.068Z,71.61
2022-11-20T02:05:29.495Z,71.47
2022-11-20T02:08:00.154Z,71.71
2022-11-20T02:10:31.363Z,71.42
2022-11-20T02:13:20.247Z,71.43
2022-11-20T02:15:51.739Z,71.23
2022-11-20T02:18:22.848Z,71.58
2022-11-20T02:20:59.945Z,71.59
2022-11-20T02:23:37.933Z,71.61
2022-11-20T02:26:12.156Z,71.30
2022-11-20T02:28:41.522Z,71.51
2022-11-20T02:31:10.272Z,71.47
2022-11-20T02:33:39.255Z,71.55
2022-11-20T02:36:12.323Z,71.32
2022-11-20T02:38:40.978Z,71.52
2022-11-20T02:41:10.112Z,71.28
2022-11-20T02:43:44.507Z,71.38
2022-11-20T02:46:15.216Z,71.35
2022-11-20T02:48:46.770Z,71.51
2022-11-20T02:51:19.534Z,71.50
2022-11-20T02:53:48.602Z,71.56
2022-11-20T02:56:17.493Z,71.59
2022-11-20T02:58:47.939Z,71.48
2022-11-20T03:01:16.521Z,71.60
2022-11-20T03:03:48.979Z,71.40
2022-11-20T03:06:20.326Z,71.49
2022-11-20T03:08:48.952Z,71.75
2022-11-20T03:11:17.687Z,71.47
2022-11-20T03:13:47.709Z,71.47
2022-11-20T03:16:19.052Z,71.43
2022-11-20T03:18:48.972Z,71.54
2022-11-20T03:21:17.864Z,71.52
2022-11-20T03:23:47.102Z,71.57
2022-11-20T03:26:17.421Z,71.66
2022-11-20T03:28:50.170Z,71.51
2022-11-20T03:31:21.098Z,71.45
2022-11-20T03:33:49.739Z,71.37
2022-11-20T03:36:21.197Z,71.48
2022-11-20T03:38:50.242Z,71.82
2022-11-20T03:41:22.586Z,71.45
2022-11-20T03:43:52.666Z,71.64
2022-11-20T03:46:21.777Z,71.38
2022-11-20T03:48:52.194Z,71.62
2022-11-20T03:51:22.737Z,71.63
2022-11-20T03:53:53.421Z,71.38
2022-11-20T03:56:29.599Z,71.86
2022-11-20T03:58:59.091Z,71.87
2022-11-20T04:01:31.182Z,71.54
2022-11-20T04:04:01.044Z,71.63
2022-11-20T04:06:35.276Z,71.75
2022-11-20T04:09:03.103Z,71.64
2022-11-20T04:11:34.095Z,71.86
2022-11-20T04:14:05.039Z,71.85
2022-11-20T04:16:37.231Z,71.68
2022-11-20T04:19:11.108Z,71.76
2022-11-20T04:21:39.706Z,71.58
2022-11-20T04:24:09.127Z,71.86
2022-11-20T04:26:40.714Z,71.95
2022-11-20T04:29:12.735Z,71.61
2022-11-20T04:31:42.534Z,72.07
2022-11-20T04:34:13.896Z,71.96
2022-11-20T04:36:43.207Z,71.84
2022-11-20T04:39:15.971Z,72.16
2022-11-20T04:41:45.563Z,72.09
2022-11-20T04:44:14.569Z,71.76
2022-11-20T04:47:06.336Z,72.14
2022-11-20T04:49:36.264Z,72.13
2022-11-20T04:52:05.353Z,72.22
2022-11-20T04:54:36.042Z,72.15
2022-11-20T04:57:07.866Z,72.18
2022-11-20T04:59:39.258Z,71.62
2022-11-20T05:02:08.315Z,71.69
2022-11-20T05:04:37.546Z,72.23
2022-11-20T05:07:12.431Z,72.34
2022-11-20T05:09:41.700Z,72.20
2022-11-20T05:12:11.416Z,72.09
2022-11-20T05:14:40.284Z,72.09
2022-11-20T05:17:16.650Z,72.14
2022-11-20T05:19:52.889Z,71.50
2022-11-20T05:22:22.649Z,71.79
2022-11-20T05:24:51.435Z,71.60
2022-11-20T05:27:20.307Z,71.77
2022-11-20T05:29:49.291Z,71.76
2022-11-20T05:32:17.979Z,71.69
2022-11-20T05:34:46.859Z,71.68
2022-11-20T05:37:15.532Z,71.65
2022-11-20T05:39:45.851Z,72.40
2022-11-20T05:42:31.254Z,71.84
2022-11-20T05:45:01.264Z,71.72
2022-11-20T05:47:33.926Z,72.40
2022-11-20T05:50:03.343Z,72.16
2022-11-20T05:52:32.695Z,71.80
2022-11-20T05:55:07.101Z,71.70
2022-11-20T05:57:36.522Z,72.41
2022-11-20T06:00:08.168Z,72.07
2022-11-20T06:02:37.349Z,72.55
2022-11-20T06:05:07.678Z,72.36
2022-11-20T06:07:36.383Z,71.86
2022-11-20T06:10:07.177Z,72.02
2022-11-20T06:12:35.987Z,71.98
2022-11-20T06:15:07.790Z,72.26
2022-11-20T06:17:36.617Z,71.99
2022-11-20T06:20:09.664Z,72.00
2022-11-20T06:22:38.715Z,72.04
2022-11-20T06:25:09.052Z,72.10
2022-11-20T06:27:37.856Z,72.60
2022-11-20T06:30:12.804Z,72.42
2022-11-20T06:32:41.631Z,72.10
2022-11-20T06:35:13.523Z,72.16
2022-11-20T06:37:43.305Z,72.58
2022-11-20T06:40:15.395Z,72.13
2022-11-20T06:42:44.144Z,72.65
2022-11-20T06:45:13.122Z,72.66
2022-11-20T06:47:42.973Z,72.68
2022-11-20T06:50:12.946Z,72.69
2022-11-20T06:52:43.748Z,72.40
2022-11-20T06:55:12.719Z,72.13
2022-11-20T06:57:43.763Z,72.49
2022-11-20T07:00:16.398Z,72.83
2022-11-20T07:02:45.280Z,72.17
2022-11-20T07:05:14.358Z,72.65
2022-11-20T07:07:47.146Z,72.77
2022-11-20T07:10:16.203Z,72.66
2022-11-20T07:12:52.051Z,72.83
2022-11-20T07:15:24.771Z,72.26
2022-11-20T07:17:57.122Z,72.77
2022-11-20T07:20:28.685Z,72.36
2022-11-20T07:22:58.319Z,72.63
2022-11-20T07:25:31.768Z,73.12
2022-11-20T07:28:00.979Z,73.00
2022-11-20T07:30:31.889Z,72.88
2022-11-20T07:33:00.609Z,73.21
2022-11-20T07:35:31.444Z,73.11
2022-11-20T07:38:02.161Z,72.79
2022-11-20T07:40:30.962Z,72.91
2022-11-20T07:42:59.796Z,72.71
2022-11-20T07:45:29.276Z,72.76
2022-11-20T07:47:57.976Z,73.04
2022-11-20T07:50:28.803Z,72.82
2022-11-20T07:53:03.803Z,72.85
2022-11-20T07:55:34.083Z,73.01
2022-11-20T07:58:02.808Z,73.17
2022-11-20T08:00:31.459Z,73.11
2022-11-20T08:03:00.134Z,73.02
2022-11-20T08:05:29.493Z,73.43
2022-11-20T08:07:59.725Z,73.13
2022-11-20T08:10:28.750Z,73.11
2022-11-20T08:13:15.672Z,72.79
2022-11-20T08:15:50.561Z,73.02
2022-11-20T08:18:37.195Z,73.06
2022-11-20T08:21:07.192Z,72.65
2022-11-20T08:23:42.339Z,72.88
2022-11-20T08:26:11.188Z,72.93
2022-11-20T08:28:39.895Z,72.89
2022-11-20T08:31:10.182Z,73.19
2022-11-20T08:33:39.378Z,72.90
2022-11-20T08:36:09.133Z,72.68
2022-11-20T08:38:37.821Z,72.95
2022-11-20T08:41:39.002Z,72.89
2022-11-20T08:44:09.171Z,72.80
2022-11-20T08:46:52.400Z,72.86
2022-11-20T08:49:23.798Z,72.56
2022-11-20T08:51:55.579Z,72.63
2022-11-20T08:54:24.462Z,73.00
2022-11-20T08:56:53.205Z,72.82
2022-11-20T09:02:12.967Z,72.78
2022-11-20T09:04:43.436Z,72.84
2022-11-20T09:07:14.332Z,72.62
2022-11-20T09:09:44.183Z,72.69
2022-11-20T09:12:12.986Z,72.54
2022-11-20T09:14:41.717Z,72.79
2022-11-20T09:17:14.121Z,72.93
2022-11-20T09:19:43.308Z,72.88
2022-11-20T09:22:13.581Z,72.91
2022-11-20T09:24:49.733Z,72.54
2022-11-20T09:27:21.278Z,72.63
2022-11-20T09:29:51.290Z,72.48
2022-11-20T09:32:22.640Z,72.36
2022-11-20T09:34:51.393Z,72.99
2022-11-20T09:37:20.136Z,71.24
2022-11-20T09:39:49.098Z,68.18
2022-11-20T09:42:38.024Z,67.12
2022-11-20T09:45:24.220Z,66.61
2022-11-20T09:48:09.954Z,65.29
2022-11-20T09:50:44.828Z,64.45
2022-11-20T09:53:22.112Z,63.55
2022-11-20T09:55:51.578Z,63.56
2022-11-20T09:58:30.725Z,63.22
2022-11-20T10:01:10.033Z,62.18
2022-11-20T10:03:46.895Z,62.35
2022-11-20T10:06:22.298Z,62.05
2022-11-20T10:09:02.517Z,61.28
2022-11-20T10:11:45.980Z,60.74
2022-11-20T10:14:28.024Z,60.74
2022-11-20T10:17:09.166Z,60.88
2022-11-20T10:19:56.122Z,60.66
2022-11-20T10:22:45.819Z,60.49
2022-11-20T10:25:18.846Z,60.34
2022-11-20T10:28:00.980Z,60.35
2022-11-20T10:30:31.191Z,59.27
2022-11-20T10:33:05.527Z,59.88
2022-11-20T10:35:40.166Z,58.90
2022-11-20T10:38:17.509Z,59.15
2022-11-20T10:40:49.801Z,59.14
2022-11-20T10:43:32.986Z,59.24
2022-11-20T10:46:06.060Z,59.42
2022-11-20T10:48:37.414Z,59.93
2022-11-20T10:51:19.079Z,60.47
2022-11-20T10:54:10.769Z,62.48
2022-11-20T10:56:48.327Z,62.75
2022-11-20T10:59:45.126Z,62.86
2022-11-20T11:02:21.990Z,63.51
2022-11-20T11:04:52.348Z,64.05
2022-11-20T11:07:25.560Z,63.83
2022-11-20T11:09:56.720Z,63.70
2022-11-20T11:12:29.223Z,64.47
2022-11-20T11:14:58.794Z,64.10
2022-11-20T11:17:41.201Z,64.57
2022-11-20T11:20:18.356Z,64.55
2022-11-20T11:22:49.564Z,64.83
2022-11-20T11:25:25.036Z,64.09
2022-11-20T11:28:00.433Z,63.76
2022-11-20T11:30:41.175Z,63.94
2022-11-20T11:33:13.234Z,64.90
2022-11-20T11:35:51.171Z,64.84
2022-11-20T11:38:30.618Z,64.61
2022-11-20T11:40:59.789Z,64.45
2022-11-20T11:43:51.854Z,64.68
2022-11-20T11:46:33.464Z,65.13
2022-11-20T11:49:16.911Z,65.20
2022-11-20T11:52:00.160Z,64.46
2022-11-20T11:54:35.721Z,64.41
2022-11-20T11:57:13.576Z,64.80
2022-11-20T11:59:59.068Z,64.78
2022-11-20T12:02:50.048Z,65.49
2022-11-20T12:05:24.279Z,65.29
2022-11-20T12:07:57.495Z,65.14
2022-11-20T12:10:41.474Z,65.61
2022-11-20T12:13:23.463Z,64.75
2022-11-20T12:15:52.589Z,65.43
2022-11-20T12:18:23.413Z,64.83
2022-11-20T12:21:12.489Z,65.65
2022-11-20T12:23:53.380Z,65.59
2022-11-20T12:26:36.369Z,65.08
2022-11-20T12:29:13.076Z,64.79
2022-11-20T12:32:20.948Z,65.18
2022-11-20T12:35:11.134Z,65.50
2022-11-20T12:37:54.432Z,65.68
2022-11-20T12:40:36.578Z,65.02
2022-11-20T12:43:35.851Z,65.69
2022-11-20T12:46:23.364Z,65.69
2022-11-20T12:49:24.508Z,65.67
2022-11-20T12:52:09.988Z,64.84
2022-11-20T12:55:02.788Z,64.96
2022-11-20T12:57:50.883Z,65.31
2022-11-20T13:00:23.303Z,65.74
2022-11-20T13:03:27.668Z,64.79
2022-11-20T13:06:06.245Z,65.06
2022-11-20T13:08:37.601Z,65.71
2022-11-20T13:11:15.710Z,65.19
2022-11-20T13:14:00.295Z,65.32
2022-11-20T13:16:35.606Z,65.66
2022-11-20T13:19:12.906Z,65.95
2022-11-20T13:21:50.819Z,65.61
2022-11-20T13:24:27.104Z,66.10
2022-11-20T13:27:05.123Z,65.94
2022-11-20T13:29:38.369Z,65.18
2022-11-20T13:32:17.086Z,66.09
2022-11-20T13:34:56.263Z,65.26
2022-11-20T13:37:37.287Z,65.91
2022-11-20T13:40:23.385Z,65.43
2022-11-20T13:43:05.016Z,65.25
2022-11-20T13:45:34.683Z,65.91
2022-11-20T13:48:19.699Z,65.32
2022-11-20T13:50:59.706Z,66.21
2022-11-20T13:54:10.562Z,66.03
2022-11-20T13:56:57.635Z,65.79
2022-11-20T13:59:49.710Z,65.63
2022-11-20T14:02:21.802Z,66.42
2022-11-20T14:04:54.078Z,66.04
2022-11-20T14:07:29.590Z,66.28
2022-11-20T14:09:58.904Z,66.22
2022-11-20T14:12:31.826Z,66.18
2022-11-20T14:15:01.274Z,66.46
2022-11-20T14:17:33.961Z,66.61
2022-11-20T14:20:23.453Z,66.26
2022-11-20T14:22:52.954Z,65.86
2022-11-20T14:25:23.835Z,66.16
2022-11-20T14:27:55.529Z,66.71
2022-11-20T14:30:26.621Z,67.03
2022-11-20T14:33:01.243Z,67.08
2022-11-20T14:35:34.512Z,66.46
2022-11-20T14:38:04.532Z,67.12
2022-11-20T14:40:36.081Z,66.74
2022-11-20T14:43:19.827Z,66.79
2022-11-20T14:45:55.828Z,67.12
2022-11-20T14:48:30.418Z,66.81
2022-11-20T14:50:59.396Z,66.76
2022-11-20T14:53:28.169Z,66.78
2022-11-20T14:56:01.283Z,66.50
2022-11-20T14:58:33.877Z,66.61
2022-11-20T15:01:05.344Z,66.96
2022-11-20T15:03:35.956Z,67.12
2022-11-20T15:06:05.474Z,67.10
2022-11-20T15:08:35.155Z,67.08
2022-11-20T15:11:17.570Z,67.53
2022-11-20T15:13:46.659Z,67.61
2022-11-20T15:16:21.166Z,66.80
2022-11-20T15:18:50.994Z,67.41
2022-11-20T15:21:23.018Z,67.41
2022-11-20T15:23:52.696Z,67.50
2022-11-20T15:26:26.284Z,67.79
2022-11-20T15:28:56.306Z,67.79
2022-11-20T15:31:25.553Z,67.87
2022-11-20T15:33:54.793Z,67.63
2022-11-20T15:36:23.602Z,67.80
2022-11-20T15:38:52.523Z,67.38
2022-11-20T15:41:21.191Z,67.98
2022-11-20T15:43:50.453Z,68.08
2022-11-20T15:46:27.774Z,67.60
2022-11-20T15:49:15.767Z,67.71
2022-11-20T15:51:48.122Z,67.90
2022-11-20T15:54:20.786Z,68.06
2022-11-20T15:56:57.310Z,67.88
2022-11-20T15:59:26.190Z,68.14
2022-11-20T16:01:55.402Z,68.02
2022-11-20T16:04:24.419Z,67.97
2022-11-20T16:06:53.468Z,68.25
2022-11-20T16:09:22.101Z,68.23
2022-11-20T16:11:51.450Z,68.35
2022-11-20T16:14:38.902Z,68.08
2022-11-20T16:17:07.599Z,68.62
2022-11-20T16:19:37.174Z,68.51
2022-11-20T16:22:05.923Z,68.68
2022-11-20T16:24:34.903Z,68.85
2022-11-20T16:27:03.820Z,68.56
2022-11-20T16:29:32.554Z,68.76
2022-11-20T16:32:01.271Z,68.81
2022-11-20T16:34:32.733Z,68.98
2022-11-20T16:37:02.015Z,68.97
2022-11-20T16:39:31.327Z,68.93
2022-11-20T16:42:05.710Z,68.88
2022-11-20T16:44:34.915Z,69.11
2022-11-20T16:47:03.819Z,69.17
2022-11-20T16:49:32.707Z,69.23
2022-11-20T16:52:02.020Z,68.88
2022-11-20T16:54:33.579Z,69.12
2022-11-20T16:57:02.233Z,69.15
2022-11-20T16:59:32.184Z,69.48
2022-11-20T17:02:01.221Z,69.32
2022-11-20T17:04:32.209Z,69.45
2022-11-20T17:07:07.683Z,69.40
2022-11-20T17:09:37.140Z,69.53
2022-11-20T17:12:07.470Z,69.43
2022-11-20T17:14:36.309Z,69.63
2022-11-20T17:17:05.859Z,69.61
2022-11-20T17:19:34.777Z,69.64
2022-11-20T17:22:04.872Z,69.83
2022-11-20T17:24:34.662Z,69.66
2022-11-20T17:27:04.225Z,69.76
2022-11-20T17:29:37.849Z,69.97
2022-11-20T17:32:11.886Z,69.93
2022-11-20T17:34:41.130Z,70.02
2022-11-20T17:37:10.958Z,69.98
2022-11-20T17:39:40.425Z,70.10
2022-11-20T17:42:32.969Z,69.98
2022-11-20T17:45:02.251Z,70.21
2022-11-20T17:47:42.647Z,70.15
2022-11-20T17:50:12.492Z,70.44
2022-11-20T17:52:45.268Z,70.30
2022-11-20T17:55:14.331Z,70.13
2022-11-20T17:57:52.906Z,70.13
2022-11-20T18:00:22.367Z,70.33
2022-11-20T18:02:51.284Z,70.37
2022-11-20T18:05:21.947Z,70.40
2022-11-20T18:07:54.117Z,70.48
2022-11-20T18:10:23.653Z,70.51
2022-11-20T18:12:54.087Z,70.51
2022-11-20T18:15:23.805Z,70.89
2022-11-20T18:17:52.761Z,70.57
2022-11-20T18:20:32.007Z,70.62
2022-11-20T18:23:02.849Z,70.70
2022-11-20T18:25:33.957Z,70.59
2022-11-20T18:28:04.830Z,70.73
2022-11-20T18:30:36.490Z,70.71
2022-11-20T18:33:06.541Z,70.97
2022-11-20T18:35:35.825Z,71.06
2022-11-20T18:38:04.923Z,70.79
2022-11-20T18:40:35.856Z,70.78
2022-11-20T18:43:24.220Z,70.92
2022-11-20T18:46:05.479Z,70.69
2022-11-20T18:48:36.314Z,70.97
2022-11-20T18:51:08.284Z,70.82
2022-11-20T18:53:40.840Z,70.82
2022-11-20T18:56:20.003Z,71.11
2022-11-20T18:58:49.712Z,71.16
2022-11-20T19:01:21.721Z,71.10
2022-11-20T19:03:52.400Z,71.10
2022-11-20T19:06:21.796Z,70.99
2022-11-20T19:08:51.262Z,71.29
2022-11-20T19:11:20.147Z,70.99
2022-11-20T19:13:59.689Z,71.37
2022-11-20T19:16:38.607Z,70.97
2022-11-20T19:19:07.780Z,71.29
2022-11-20T19:21:37.983Z,71.37
2022-11-20T19:24:08.997Z,71.37
2022-11-20T19:26:45.858Z,71.47
2022-11-20T19:29:17.250Z,71.58
2022-11-20T19:31:48.422Z,71.41
2022-11-20T19:34:17.437Z,71.47
2022-11-20T19:36:46.710Z,71.60
2022-11-20T19:39:16.014Z,71.59
2022-11-20T19:41:45.012Z,71.41
2022-11-20T19:44:17.757Z,71.33
2022-11-20T19:46:47.459Z,71.60
2022-11-20T19:49:16.857Z,71.68
2022-11-20T19:51:47.667Z,71.60
2022-11-20T19:54:18.974Z,71.62
2022-11-20T19:56:49.239Z,71.71
2022-11-20T19:59:18.043Z,71.76
2022-11-20T20:01:47.044Z,71.91
2022-11-20T20:04:15.857Z,71.86
2022-11-20T20:06:44.752Z,72.02
2022-11-20T20:09:18.849Z,72.06
2022-11-20T20:11:49.088Z,72.15
2022-11-20T20:14:21.949Z,71.90
2022-11-20T20:16:51.548Z,72.34
2022-11-20T20:19:23.826Z,72.59
2022-11-20T20:21:54.699Z,72.32
2022-11-20T20:24:28.126Z,72.46
2022-11-20T20:27:00.489Z,72.52
2022-11-20T20:29:29.442Z,72.44
2022-11-20T20:32:00.342Z,72.66
2022-11-20T20:34:31.718Z,72.73
2022-11-20T20:37:03.958Z,72.63
2022-11-20T20:39:34.497Z,72.74
2022-11-20T20:42:06.747Z,72.56
2022-11-20T20:44:57.173Z,72.67
2022-11-20T20:47:31.171Z,72.75
2022-11-20T20:50:00.415Z,72.77
2022-11-20T20:52:29.404Z,72.82
2022-11-20T20:55:00.839Z,72.80
2022-11-20T20:57:29.986Z,72.79
2022-11-20T20:59:59.798Z,72.77
2022-11-20T21:02:28.976Z,72.89
2022-11-20T21:04:59.597Z,72.90
2022-11-20T21:07:29.836Z,73.06
2022-11-20T21:09:59.017Z,72.91
2022-11-20T21:12:29.999Z,72.88
2022-11-20T21:14:59.521Z,72.98
2022-11-20T21:17:29.400Z,72.98
2022-11-20T21:20:00.128Z,72.92
2022-11-20T21:22:36.221Z,73.17
2022-11-20T21:25:09.983Z,73.07
2022-11-20T21:28:01.163Z,73.06
2022-11-20T21:30:30.623Z,73.12
2022-11-20T21:33:02.607Z,73.09
2022-11-20T21:35:35.123Z,73.12
2022-11-20T21:38:05.096Z,73.17
2022-11-20T21:40:36.854Z,73.28
2022-11-20T21:43:05.885Z,73.20
2022-11-20T21:45:35.760Z,73.14
2022-11-20T21:48:06.300Z,73.10
2022-11-20T21:50:38.645Z,73.39
2022-11-20T21:53:07.552Z,73.40
2022-11-20T21:55:36.581Z,73.21
2022-11-20T21:58:05.631Z,73.29
2022-11-20T22:00:36.159Z,73.31
2022-11-20T22:03:06.107Z,73.37
2022-11-20T22:05:35.563Z,73.32
2022-11-20T22:08:05.169Z,73.37
2022-11-20T22:10:36.420Z,73.35
2022-11-20T22:13:25.423Z,73.35
2022-11-20T22:16:02.492Z,73.44
2022-11-20T22:18:31.694Z,73.35
2022-11-20T22:21:06.000Z,73.33
2022-11-20T22:23:38.558Z,73.46
2022-11-20T22:26:09.714Z,73.44
2022-11-20T22:28:39.308Z,73.53
2022-11-20T22:31:12.016Z,73.21
2022-11-20T22:33:41.398Z,73.26
2022-11-20T22:36:13.069Z,73.41
2022-11-20T22:38:42.971Z,73.56
2022-11-20T22:41:13.827Z,73.31
2022-11-20T22:43:47.294Z,73.37
2022-11-20T22:46:18.595Z,73.49
2022-11-20T22:48:52.820Z,73.39
2022-11-20T22:51:24.346Z,73.35
2022-11-20T22:53:55.420Z,73.62
2022-11-20T22:56:24.774Z,73.33
2022-11-20T22:58:56.270Z,73.36
2022-11-20T23:01:30.070Z,73.46
2022-11-20T23:04:05.523Z,73.60
2022-11-20T23:06:36.665Z,73.56
2022-11-20T23:09:08.344Z,73.49
2022-11-20T23:11:37.364Z,73.45
2022-11-20T23:14:10.384Z,73.48
2022-11-20T23:16:42.938Z,73.38
2022-11-20T23:19:14.217Z,73.47
2022-11-20T23:21:43.502Z,73.42
2022-11-20T23:24:12.363Z,73.53
2022-11-20T23:26:44.742Z,73.45
2022-11-20T23:29:14.874Z,73.63
2022-11-20T23:31:47.736Z,73.70
2022-11-20T23:34:19.035Z,73.78
2022-11-20T23:36:49.875Z,73.77
2022-11-20T23:39:18.734Z,73.88
2022-11-20T23:41:47.841Z,73.71
2022-11-20T23:44:16.901Z,73.73
2022-11-20T23:46:50.653Z,73.65
2022-11-20T23:49:20.190Z,73.66
2022-11-20T23:51:48.898Z,73.93
2022-11-20T23:54:21.324Z,73.82
2022-11-20T23:56:50.406Z,73.96
2022-11-20T23:59:19.527Z,73.86
